sensor_id;sensor_type;location;lat;lon;timestamp;pressure;altitude;pressure_sealevel;temperature
23208;BMP180;11773;52.570;13.052;2023-04-24T00:01:47;100027.00;;;17.20
23208;BMP180;11773;52.570;13.052;2023-04-24T00:04:16;100014.00;;;17.20
23208;BMP180;11773;52.570;13.052;2023-04-24T00:06:46;100013.00;;;17.20
23208;BMP180;11773;52.570;13.052;2023-04-24T00:09:18;100008.00;;;17.20
23208;BMP180;11773;52.570;13.052;2023-04-24T00:11:47;100002.00;;;17.20
23208;BMP180;11773;52.570;13.052;2023-04-24T00:14:17;100005.00;;;17.10
23208;BMP180;11773;52.570;13.052;2023-04-24T00:16:46;100001.00;;;17.10
23208;BMP180;11773;52.570;13.052;2023-04-24T00:19:16;100005.00;;;17.10
23208;BMP180;11773;52.570;13.052;2023-04-24T00:21:47;99997.00;;;17.20
23208;BMP180;11773;52.570;13.052;2023-04-24T00:24:20;99989.00;;;17.10
23208;BMP180;11773;52.570;13.052;2023-04-24T00:26:50;99995.00;;;17.20
23208;BMP180;11773;52.570;13.052;2023-04-24T00:29:19;99975.00;;;17.10
23208;BMP180;11773;52.570;13.052;2023-04-24T00:31:49;99986.00;;;17.10
23208;BMP180;11773;52.570;13.052;2023-04-24T00:34:19;99967.00;;;17.10
23208;BMP180;11773;52.570;13.052;2023-04-24T00:36:48;99966.00;;;17.10
23208;BMP180;11773;52.570;13.052;2023-04-24T00:39:20;99978.00;;;17.10
23208;BMP180;11773;52.570;13.052;2023-04-24T00:41:50;99970.00;;;17.10
23208;BMP180;11773;52.570;13.052;2023-04-24T00:44:20;99952.00;;;17.00
23208;BMP180;11773;52.570;13.052;2023-04-24T00:46:51;99949.00;;;17.10
23208;BMP180;11773;52.570;13.052;2023-04-24T00:49:22;99944.00;;;17.00
23208;BMP180;11773;52.570;13.052;2023-04-24T00:51:52;99937.00;;;17.00
23208;BMP180;11773;52.570;13.052;2023-04-24T00:54:22;99958.00;;;17.10
23208;BMP180;11773;52.570;13.052;2023-04-24T00:56:51;99957.00;;;17.10
23208;BMP180;11773;52.570;13.052;2023-04-24T00:59:21;99942.00;;;17.10
23208;BMP180;11773;52.570;13.052;2023-04-24T01:01:50;99944.00;;;17.10
23208;BMP180;11773;52.570;13.052;2023-04-24T01:04:21;99957.00;;;17.10
23208;BMP180;11773;52.570;13.052;2023-04-24T01:06:51;99959.00;;;17.20
23208;BMP180;11773;52.570;13.052;2023-04-24T01:09:23;99946.00;;;17.20
23208;BMP180;11773;52.570;13.052;2023-04-24T01:11:54;99949.00;;;17.20
23208;BMP180;11773;52.570;13.052;2023-04-24T01:14:25;99949.00;;;17.20
23208;BMP180;11773;52.570;13.052;2023-04-24T01:16:54;99944.00;;;17.20
23208;BMP180;11773;52.570;13.052;2023-04-24T01:19:25;99952.00;;;17.20
23208;BMP180;11773;52.570;13.052;2023-04-24T01:21:58;99940.00;;;17.20
23208;BMP180;11773;52.570;13.052;2023-04-24T01:24:28;99951.00;;;17.20
23208;BMP180;11773;52.570;13.052;2023-04-24T01:26:58;99935.00;;;17.20
23208;BMP180;11773;52.570;13.052;2023-04-24T01:29:29;99940.00;;;17.20
23208;BMP180;11773;52.570;13.052;2023-04-24T01:31:59;99956.00;;;17.20
23208;BMP180;11773;52.570;13.052;2023-04-24T01:34:29;99951.00;;;17.20
23208;BMP180;11773;52.570;13.052;2023-04-24T01:36:59;99956.00;;;17.20
23208;BMP180;11773;52.570;13.052;2023-04-24T01:39:29;99935.00;;;17.20
23208;BMP180;11773;52.570;13.052;2023-04-24T01:41:58;99945.00;;;17.20
23208;BMP180;11773;52.570;13.052;2023-04-24T01:44:31;99928.00;;;17.20
23208;BMP180;11773;52.570;13.052;2023-04-24T01:47:02;99926.00;;;17.20
23208;BMP180;11773;52.570;13.052;2023-04-24T01:49:33;99929.00;;;17.20
23208;BMP180;11773;52.570;13.052;2023-04-24T01:52:02;99938.00;;;17.20
23208;BMP180;11773;52.570;13.052;2023-04-24T01:54:32;99926.00;;;17.30
23208;BMP180;11773;52.570;13.052;2023-04-24T01:57:01;99936.00;;;17.30
23208;BMP180;11773;52.570;13.052;2023-04-24T01:59:33;99928.00;;;17.30
23208;BMP180;11773;52.570;13.052;2023-04-24T02:02:03;99940.00;;;17.40
23208;BMP180;11773;52.570;13.052;2023-04-24T02:04:32;99938.00;;;17.40
23208;BMP180;11773;52.570;13.052;2023-04-24T02:07:02;99934.00;;;17.30
23208;BMP180;11773;52.570;13.052;2023-04-24T02:09:32;99925.00;;;17.30
23208;BMP180;11773;52.570;13.052;2023-04-24T02:12:01;99924.00;;;17.30
23208;BMP180;11773;52.570;13.052;2023-04-24T02:14:31;99918.00;;;17.40
23208;BMP180;11773;52.570;13.052;2023-04-24T02:17:00;99922.00;;;17.40
23208;BMP180;11773;52.570;13.052;2023-04-24T02:19:30;99926.00;;;17.40
23208;BMP180;11773;52.570;13.052;2023-04-24T02:21:59;99913.00;;;17.40
23208;BMP180;11773;52.570;13.052;2023-04-24T02:24:29;99906.00;;;17.40
23208;BMP180;11773;52.570;13.052;2023-04-24T02:26:58;99902.00;;;17.40
23208;BMP180;11773;52.570;13.052;2023-04-24T02:29:28;99895.00;;;17.40
23208;BMP180;11773;52.570;13.052;2023-04-24T02:31:58;99904.00;;;17.40
23208;BMP180;11773;52.570;13.052;2023-04-24T02:34:28;99908.00;;;17.40
23208;BMP180;11773;52.570;13.052;2023-04-24T02:36:57;99904.00;;;17.50
23208;BMP180;11773;52.570;13.052;2023-04-24T02:39:27;99907.00;;;17.50
23208;BMP180;11773;52.570;13.052;2023-04-24T02:41:56;99905.00;;;17.50
23208;BMP180;11773;52.570;13.052;2023-04-24T02:44:26;99904.00;;;17.50
23208;BMP180;11773;52.570;13.052;2023-04-24T02:46:56;99889.00;;;17.40
23208;BMP180;11773;52.570;13.052;2023-04-24T02:49:25;99903.00;;;17.50
23208;BMP180;11773;52.570;13.052;2023-04-24T02:51:55;99895.00;;;17.50
23208;BMP180;11773;52.570;13.052;2023-04-24T02:54:25;99879.00;;;17.50
23208;BMP180;11773;52.570;13.052;2023-04-24T02:56:54;99889.00;;;17.50
23208;BMP180;11773;52.570;13.052;2023-04-24T02:59:25;99886.00;;;17.50
23208;BMP180;11773;52.570;13.052;2023-04-24T03:01:55;99895.00;;;17.50
23208;BMP180;11773;52.570;13.052;2023-04-24T03:04:25;99901.00;;;17.50
23208;BMP180;11773;52.570;13.052;2023-04-24T03:06:54;99890.00;;;17.40
23208;BMP180;11773;52.570;13.052;2023-04-24T03:09:24;99900.00;;;17.40
23208;BMP180;11773;52.570;13.052;2023-04-24T03:11:54;99902.00;;;17.40
23208;BMP180;11773;52.570;13.052;2023-04-24T03:14:24;99906.00;;;17.40
23208;BMP180;11773;52.570;13.052;2023-04-24T03:16:54;99914.00;;;17.40
23208;BMP180;11773;52.570;13.052;2023-04-24T03:19:23;99931.00;;;17.40
23208;BMP180;11773;52.570;13.052;2023-04-24T03:21:53;99923.00;;;17.40
23208;BMP180;11773;52.570;13.052;2023-04-24T03:24:22;99921.00;;;17.40
23208;BMP180;11773;52.570;13.052;2023-04-24T03:26:52;99916.00;;;17.40
23208;BMP180;11773;52.570;13.052;2023-04-24T03:29:22;99932.00;;;17.40
23208;BMP180;11773;52.570;13.052;2023-04-24T03:31:51;99931.00;;;17.40
23208;BMP180;11773;52.570;13.052;2023-04-24T03:34:21;99915.00;;;17.40
23208;BMP180;11773;52.570;13.052;2023-04-24T03:36:50;99918.00;;;17.40
23208;BMP180;11773;52.570;13.052;2023-04-24T03:39:21;99923.00;;;17.40
23208;BMP180;11773;52.570;13.052;2023-04-24T03:41:50;99923.00;;;17.40
23208;BMP180;11773;52.570;13.052;2023-04-24T03:44:20;99918.00;;;17.40
23208;BMP180;11773;52.570;13.052;2023-04-24T03:46:49;99923.00;;;17.50
23208;BMP180;11773;52.570;13.052;2023-04-24T03:49:19;99915.00;;;17.50
23208;BMP180;11773;52.570;13.052;2023-04-24T03:51:48;99919.00;;;17.50
23208;BMP180;11773;52.570;13.052;2023-04-24T03:54:19;99920.00;;;17.60
23208;BMP180;11773;52.570;13.052;2023-04-24T03:56:49;99918.00;;;17.60
23208;BMP180;11773;52.570;13.052;2023-04-24T03:59:19;99905.00;;;17.60
23208;BMP180;11773;52.570;13.052;2023-04-24T04:01:49;99908.00;;;17.60
23208;BMP180;11773;52.570;13.052;2023-04-24T04:04:18;99909.00;;;17.60
23208;BMP180;11773;52.570;13.052;2023-04-24T04:06:48;99907.00;;;17.60
23208;BMP180;11773;52.570;13.052;2023-04-24T04:09:18;99914.00;;;17.60
23208;BMP180;11773;52.570;13.052;2023-04-24T04:11:47;99905.00;;;17.60
23208;BMP180;11773;52.570;13.052;2023-04-24T04:14:17;99904.00;;;17.60
23208;BMP180;11773;52.570;13.052;2023-04-24T04:16:46;99910.00;;;17.60
23208;BMP180;11773;52.570;13.052;2023-04-24T04:19:16;99917.00;;;17.60
23208;BMP180;11773;52.570;13.052;2023-04-24T04:21:46;99922.00;;;17.60
23208;BMP180;11773;52.570;13.052;2023-04-24T04:24:17;99908.00;;;17.60
23208;BMP180;11773;52.570;13.052;2023-04-24T04:26:47;99913.00;;;17.70
23208;BMP180;11773;52.570;13.052;2023-04-24T04:29:18;99901.00;;;17.70
23208;BMP180;11773;52.570;13.052;2023-04-24T04:31:48;99905.00;;;17.70
23208;BMP180;11773;52.570;13.052;2023-04-24T04:34:18;99897.00;;;17.70
23208;BMP180;11773;52.570;13.052;2023-04-24T04:36:47;99918.00;;;17.70
23208;BMP180;11773;52.570;13.052;2023-04-24T04:39:17;99917.00;;;17.70
23208;BMP180;11773;52.570;13.052;2023-04-24T04:41:48;99926.00;;;17.70
23208;BMP180;11773;52.570;13.052;2023-04-24T04:44:17;99921.00;;;17.70
23208;BMP180;11773;52.570;13.052;2023-04-24T04:46:47;99922.00;;;17.70
23208;BMP180;11773;52.570;13.052;2023-04-24T04:49:17;99929.00;;;17.70
23208;BMP180;11773;52.570;13.052;2023-04-24T04:51:47;99926.00;;;17.80
23208;BMP180;11773;52.570;13.052;2023-04-24T04:54:16;99934.00;;;17.80
23208;BMP180;11773;52.570;13.052;2023-04-24T04:56:46;99929.00;;;17.80
23208;BMP180;11773;52.570;13.052;2023-04-24T04:59:15;99933.00;;;17.80
23208;BMP180;11773;52.570;13.052;2023-04-24T05:01:45;99936.00;;;17.90
23208;BMP180;11773;52.570;13.052;2023-04-24T05:04:14;99943.00;;;17.90
23208;BMP180;11773;52.570;13.052;2023-04-24T05:06:44;99939.00;;;18.00
23208;BMP180;11773;52.570;13.052;2023-04-24T05:09:15;99940.00;;;18.00
23208;BMP180;11773;52.570;13.052;2023-04-24T05:11:45;99931.00;;;18.10
23208;BMP180;11773;52.570;13.052;2023-04-24T05:14:14;99941.00;;;18.10
23208;BMP180;11773;52.570;13.052;2023-04-24T05:16:45;99937.00;;;18.20
23208;BMP180;11773;52.570;13.052;2023-04-24T05:19:15;99935.00;;;18.20
23208;BMP180;11773;52.570;13.052;2023-04-24T05:21:45;99939.00;;;18.30
23208;BMP180;11773;52.570;13.052;2023-04-24T05:24:14;99952.00;;;18.40
23208;BMP180;11773;52.570;13.052;2023-04-24T05:26:44;99947.00;;;18.40
23208;BMP180;11773;52.570;13.052;2023-04-24T05:29:14;99952.00;;;18.50
23208;BMP180;11773;52.570;13.052;2023-04-24T05:31:43;99953.00;;;18.60
23208;BMP180;11773;52.570;13.052;2023-04-24T05:34:13;99951.00;;;18.70
23208;BMP180;11773;52.570;13.052;2023-04-24T05:36:44;99966.00;;;18.80
23208;BMP180;11773;52.570;13.052;2023-04-24T05:39:15;99954.00;;;18.90
23208;BMP180;11773;52.570;13.052;2023-04-24T05:41:44;99958.00;;;19.00
23208;BMP180;11773;52.570;13.052;2023-04-24T05:44:14;99970.00;;;19.10
23208;BMP180;11773;52.570;13.052;2023-04-24T05:46:43;99967.00;;;19.20
23208;BMP180;11773;52.570;13.052;2023-04-24T05:49:13;99965.00;;;19.30
23208;BMP180;11773;52.570;13.052;2023-04-24T05:51:42;99982.00;;;19.40
23208;BMP180;11773;52.570;13.052;2023-04-24T05:54:12;99968.00;;;19.50
23208;BMP180;11773;52.570;13.052;2023-04-24T05:56:42;99968.00;;;19.70
23208;BMP180;11773;52.570;13.052;2023-04-24T05:59:11;99982.00;;;19.90
23208;BMP180;11773;52.570;13.052;2023-04-24T06:01:41;99973.00;;;20.10
23208;BMP180;11773;52.570;13.052;2023-04-24T06:04:11;99983.00;;;20.20
23208;BMP180;11773;52.570;13.052;2023-04-24T06:06:42;99979.00;;;20.40
23208;BMP180;11773;52.570;13.052;2023-04-24T06:09:12;99978.00;;;20.60
23208;BMP180;11773;52.570;13.052;2023-04-24T06:11:41;99982.00;;;20.80
23208;BMP180;11773;52.570;13.052;2023-04-24T06:14:11;99981.00;;;21.00
23208;BMP180;11773;52.570;13.052;2023-04-24T06:16:42;99985.00;;;21.20
23208;BMP180;11773;52.570;13.052;2023-04-24T06:19:12;99990.00;;;21.40
23208;BMP180;11773;52.570;13.052;2023-04-24T06:21:42;99983.00;;;21.60
23208;BMP180;11773;52.570;13.052;2023-04-24T06:24:13;99977.00;;;21.80
23208;BMP180;11773;52.570;13.052;2023-04-24T06:26:42;99985.00;;;22.00
23208;BMP180;11773;52.570;13.052;2023-04-24T06:29:12;99990.00;;;22.10
23208;BMP180;11773;52.570;13.052;2023-04-24T06:31:41;100002.00;;;22.20
23208;BMP180;11773;52.570;13.052;2023-04-24T06:34:11;99997.00;;;22.20
23208;BMP180;11773;52.570;13.052;2023-04-24T06:36:40;99989.00;;;22.30
23208;BMP180;11773;52.570;13.052;2023-04-24T06:39:10;100003.00;;;22.30
23208;BMP180;11773;52.570;13.052;2023-04-24T06:41:40;100000.00;;;22.30
23208;BMP180;11773;52.570;13.052;2023-04-24T06:44:10;99995.00;;;22.30
23208;BMP180;11773;52.570;13.052;2023-04-24T06:46:39;99998.00;;;22.30
23208;BMP180;11773;52.570;13.052;2023-04-24T06:49:09;100004.00;;;22.30
23208;BMP180;11773;52.570;13.052;2023-04-24T06:51:38;99992.00;;;22.30
23208;BMP180;11773;52.570;13.052;2023-04-24T06:54:08;99996.00;;;22.20
23208;BMP180;11773;52.570;13.052;2023-04-24T06:56:38;99988.00;;;22.20
23208;BMP180;11773;52.570;13.052;2023-04-24T06:59:07;100008.00;;;22.20
23208;BMP180;11773;52.570;13.052;2023-04-24T07:01:37;99990.00;;;22.30
23208;BMP180;11773;52.570;13.052;2023-04-24T07:04:06;99975.00;;;22.30
23208;BMP180;11773;52.570;13.052;2023-04-24T07:06:36;99976.00;;;22.40
23208;BMP180;11773;52.570;13.052;2023-04-24T07:09:07;99977.00;;;22.50
23208;BMP180;11773;52.570;13.052;2023-04-24T07:11:37;99982.00;;;22.60
23208;BMP180;11773;52.570;13.052;2023-04-24T07:14:09;99993.00;;;22.70
23208;BMP180;11773;52.570;13.052;2023-04-24T07:16:39;99988.00;;;22.80
23208;BMP180;11773;52.570;13.052;2023-04-24T07:19:09;99979.00;;;22.90
23208;BMP180;11773;52.570;13.052;2023-04-24T07:21:38;99989.00;;;23.00
23208;BMP180;11773;52.570;13.052;2023-04-24T07:24:08;99988.00;;;23.00
23208;BMP180;11773;52.570;13.052;2023-04-24T07:26:41;99990.00;;;23.10
23208;BMP180;11773;52.570;13.052;2023-04-24T07:29:10;99991.00;;;23.20
23208;BMP180;11773;52.570;13.052;2023-04-24T07:31:40;99996.00;;;23.20
23208;BMP180;11773;52.570;13.052;2023-04-24T07:34:10;100001.00;;;23.30
23208;BMP180;11773;52.570;13.052;2023-04-24T07:36:41;99997.00;;;23.40
23208;BMP180;11773;52.570;13.052;2023-04-24T07:39:10;99987.00;;;23.50
23208;BMP180;11773;52.570;13.052;2023-04-24T07:41:40;99997.00;;;23.60
23208;BMP180;11773;52.570;13.052;2023-04-24T07:44:10;99992.00;;;23.60
23208;BMP180;11773;52.570;13.052;2023-04-24T07:46:40;100008.00;;;23.70
23208;BMP180;11773;52.570;13.052;2023-04-24T07:49:10;100001.00;;;23.80
23208;BMP180;11773;52.570;13.052;2023-04-24T07:51:41;99999.00;;;23.80
23208;BMP180;11773;52.570;13.052;2023-04-24T07:54:11;99995.00;;;23.90
23208;BMP180;11773;52.570;13.052;2023-04-24T07:56:42;99991.00;;;23.90
23208;BMP180;11773;52.570;13.052;2023-04-24T07:59:12;99979.00;;;23.90
23208;BMP180;11773;52.570;13.052;2023-04-24T08:01:42;99998.00;;;23.90
23208;BMP180;11773;52.570;13.052;2023-04-24T08:04:11;99994.00;;;23.90
23208;BMP180;11773;52.570;13.052;2023-04-24T08:06:41;99986.00;;;23.90
23208;BMP180;11773;52.570;13.052;2023-04-24T08:09:10;99992.00;;;23.90
23208;BMP180;11773;52.570;13.052;2023-04-24T08:11:40;99995.00;;;23.90
23208;BMP180;11773;52.570;13.052;2023-04-24T08:14:09;99994.00;;;23.90
23208;BMP180;11773;52.570;13.052;2023-04-24T08:16:41;100002.00;;;23.80
23208;BMP180;11773;52.570;13.052;2023-04-24T08:19:11;100008.00;;;23.80
23208;BMP180;11773;52.570;13.052;2023-04-24T08:21:41;99999.00;;;23.80
23208;BMP180;11773;52.570;13.052;2023-04-24T08:24:10;99989.00;;;23.80
23208;BMP180;11773;52.570;13.052;2023-04-24T08:26:40;99991.00;;;23.70
23208;BMP180;11773;52.570;13.052;2023-04-24T08:29:10;99992.00;;;23.70
23208;BMP180;11773;52.570;13.052;2023-04-24T08:31:39;100004.00;;;23.70
23208;BMP180;11773;52.570;13.052;2023-04-24T08:34:10;99976.00;;;23.70
23208;BMP180;11773;52.570;13.052;2023-04-24T08:36:40;100001.00;;;23.70
23208;BMP180;11773;52.570;13.052;2023-04-24T08:39:11;99994.00;;;23.60
23208;BMP180;11773;52.570;13.052;2023-04-24T08:41:43;99985.00;;;23.60
23208;BMP180;11773;52.570;13.052;2023-04-24T08:44:14;99997.00;;;23.60
23208;BMP180;11773;52.570;13.052;2023-04-24T08:46:45;99998.00;;;23.60
23208;BMP180;11773;52.570;13.052;2023-04-24T08:49:18;99993.00;;;23.60
23208;BMP180;11773;52.570;13.052;2023-04-24T08:51:49;99988.00;;;23.60
23208;BMP180;11773;52.570;13.052;2023-04-24T08:54:20;99992.00;;;23.50
23208;BMP180;11773;52.570;13.052;2023-04-24T08:56:53;99999.00;;;23.50
23208;BMP180;11773;52.570;13.052;2023-04-24T08:59:23;99995.00;;;23.50
23208;BMP180;11773;52.570;13.052;2023-04-24T09:01:53;100013.00;;;23.40
23208;BMP180;11773;52.570;13.052;2023-04-24T09:04:25;100000.00;;;23.40
23208;BMP180;11773;52.570;13.052;2023-04-24T09:06:58;99996.00;;;23.30
23208;BMP180;11773;52.570;13.052;2023-04-24T09:09:30;100000.00;;;23.30
23208;BMP180;11773;52.570;13.052;2023-04-24T09:12:01;99995.00;;;23.30
23208;BMP180;11773;52.570;13.052;2023-04-24T09:14:33;100001.00;;;23.20
23208;BMP180;11773;52.570;13.052;2023-04-24T09:17:04;100011.00;;;23.20
23208;BMP180;11773;52.570;13.052;2023-04-24T09:19:35;99988.00;;;23.20
23208;BMP180;11773;52.570;13.052;2023-04-24T09:22:10;99991.00;;;23.20
23208;BMP180;11773;52.570;13.052;2023-04-24T09:24:40;100005.00;;;23.10
23208;BMP180;11773;52.570;13.052;2023-04-24T09:27:11;99995.00;;;23.10
23208;BMP180;11773;52.570;13.052;2023-04-24T09:29:55;99993.00;;;23.10
23208;BMP180;11773;52.570;13.052;2023-04-24T09:32:26;100002.00;;;23.10
23208;BMP180;11773;52.570;13.052;2023-04-24T09:35:10;99996.00;;;23.10
23208;BMP180;11773;52.570;13.052;2023-04-24T09:37:43;100001.00;;;23.00
23208;BMP180;11773;52.570;13.052;2023-04-24T09:40:18;99999.00;;;23.00
23208;BMP180;11773;52.570;13.052;2023-04-24T09:42:56;99997.00;;;23.00
23208;BMP180;11773;52.570;13.052;2023-04-24T09:45:38;100013.00;;;23.00
23208;BMP180;11773;52.570;13.052;2023-04-24T09:48:11;100006.00;;;22.90
23208;BMP180;11773;52.570;13.052;2023-04-24T09:50:45;100004.00;;;22.90
23208;BMP180;11773;52.570;13.052;2023-04-24T09:53:15;99994.00;;;22.90
23208;BMP180;11773;52.570;13.052;2023-04-24T09:55:46;99982.00;;;22.90
23208;BMP180;11773;52.570;13.052;2023-04-24T09:58:17;99992.00;;;23.00
23208;BMP180;11773;52.570;13.052;2023-04-24T10:00:46;99987.00;;;23.00
23208;BMP180;11773;52.570;13.052;2023-04-24T10:03:18;99993.00;;;23.00
23208;BMP180;11773;52.570;13.052;2023-04-24T10:05:48;99996.00;;;23.00
23208;BMP180;11773;52.570;13.052;2023-04-24T10:08:17;100005.00;;;23.00
23208;BMP180;11773;52.570;13.052;2023-04-24T10:10:47;100000.00;;;23.00
23208;BMP180;11773;52.570;13.052;2023-04-24T10:13:16;100002.00;;;23.10
23208;BMP180;11773;52.570;13.052;2023-04-24T10:15:47;100000.00;;;23.10
23208;BMP180;11773;52.570;13.052;2023-04-24T10:18:20;99985.00;;;23.00
23208;BMP180;11773;52.570;13.052;2023-04-24T10:20:50;99989.00;;;23.00
23208;BMP180;11773;52.570;13.052;2023-04-24T10:23:20;99992.00;;;23.00
23208;BMP180;11773;52.570;13.052;2023-04-24T10:25:51;99995.00;;;23.00
23208;BMP180;11773;52.570;13.052;2023-04-24T10:28:21;99977.00;;;23.00
23208;BMP180;11773;52.570;13.052;2023-04-24T10:30:54;99973.00;;;23.00
23208;BMP180;11773;52.570;13.052;2023-04-24T10:33:24;99978.00;;;23.00
23208;BMP180;11773;52.570;13.052;2023-04-24T10:35:56;99968.00;;;23.00
23208;BMP180;11773;52.570;13.052;2023-04-24T10:38:29;99971.00;;;23.00
23208;BMP180;11773;52.570;13.052;2023-04-24T10:41:11;99972.00;;;23.10
23208;BMP180;11773;52.570;13.052;2023-04-24T10:44:11;99969.00;;;23.10
23208;BMP180;11773;52.570;13.052;2023-04-24T10:46:22;99983.00;;;23.10
23208;BMP180;11773;52.570;13.052;2023-04-24T10:48:54;99976.00;;;23.20
23208;BMP180;11773;52.570;13.052;2023-04-24T10:51:42;99979.00;;;23.20
23208;BMP180;11773;52.570;13.052;2023-04-24T10:53:58;99977.00;;;23.20
23208;BMP180;11773;52.570;13.052;2023-04-24T10:56:28;99975.00;;;23.30
23208;BMP180;11773;52.570;13.052;2023-04-24T10:58:59;99987.00;;;23.30
23208;BMP180;11773;52.570;13.052;2023-04-24T11:01:31;100000.00;;;23.30
23208;BMP180;11773;52.570;13.052;2023-04-24T11:04:04;100012.00;;;23.20
23208;BMP180;11773;52.570;13.052;2023-04-24T11:06:38;99993.00;;;23.20
23208;BMP180;11773;52.570;13.052;2023-04-24T11:09:10;100004.00;;;23.10
23208;BMP180;11773;52.570;13.052;2023-04-24T11:11:46;99982.00;;;23.00
23208;BMP180;11773;52.570;13.052;2023-04-24T11:14:16;99997.00;;;23.00
23208;BMP180;11773;52.570;13.052;2023-04-24T11:16:54;99981.00;;;23.00
23208;BMP180;11773;52.570;13.052;2023-04-24T11:19:26;99975.00;;;22.90
23208;BMP180;11773;52.570;13.052;2023-04-24T11:22:01;99984.00;;;23.00
23208;BMP180;11773;52.570;13.052;2023-04-24T11:24:40;99979.00;;;22.90
23208;BMP180;11773;52.570;13.052;2023-04-24T11:27:17;99972.00;;;22.90
23208;BMP180;11773;52.570;13.052;2023-04-24T11:35:20;99963.00;;;22.80
23208;BMP180;11773;52.570;13.052;2023-04-24T11:37:54;99978.00;;;22.80
23208;BMP180;11773;52.570;13.052;2023-04-24T11:40:25;99970.00;;;22.80
23208;BMP180;11773;52.570;13.052;2023-04-24T11:42:55;99976.00;;;22.80
23208;BMP180;11773;52.570;13.052;2023-04-24T11:45:28;99968.00;;;22.80
23208;BMP180;11773;52.570;13.052;2023-04-24T11:47:58;99967.00;;;22.90
23208;BMP180;11773;52.570;13.052;2023-04-24T11:50:28;99967.00;;;22.90
23208;BMP180;11773;52.570;13.052;2023-04-24T11:52:58;99970.00;;;22.90
23208;BMP180;11773;52.570;13.052;2023-04-24T11:55:29;99973.00;;;23.00
23208;BMP180;11773;52.570;13.052;2023-04-24T11:58:00;99963.00;;;23.00
23208;BMP180;11773;52.570;13.052;2023-04-24T12:00:32;99973.00;;;23.00
23208;BMP180;11773;52.570;13.052;2023-04-24T12:03:10;99968.00;;;23.00
23208;BMP180;11773;52.570;13.052;2023-04-24T12:05:41;99961.00;;;23.00
23208;BMP180;11773;52.570;13.052;2023-04-24T12:08:10;99966.00;;;23.00
23208;BMP180;11773;52.570;13.052;2023-04-24T12:10:40;99978.00;;;23.00
23208;BMP180;11773;52.570;13.052;2023-04-24T12:13:10;99980.00;;;23.00
23208;BMP180;11773;52.570;13.052;2023-04-24T12:15:41;99997.00;;;23.00
23208;BMP180;11773;52.570;13.052;2023-04-24T12:18:13;99998.00;;;23.00
23208;BMP180;11773;52.570;13.052;2023-04-24T12:20:44;100002.00;;;23.00
23208;BMP180;11773;52.570;13.052;2023-04-24T12:23:14;99994.00;;;22.90
23208;BMP180;11773;52.570;13.052;2023-04-24T12:25:44;100001.00;;;22.90
23208;BMP180;11773;52.570;13.052;2023-04-24T12:28:14;99980.00;;;22.90
23208;BMP180;11773;52.570;13.052;2023-04-24T12:30:50;99991.00;;;22.90
23208;BMP180;11773;52.570;13.052;2023-04-24T12:33:21;99983.00;;;22.90
23208;BMP180;11773;52.570;13.052;2023-04-24T12:35:54;99975.00;;;22.80
23208;BMP180;11773;52.570;13.052;2023-04-24T12:38:27;99974.00;;;22.80
23208;BMP180;11773;52.570;13.052;2023-04-24T12:41:07;99982.00;;;22.80
23208;BMP180;11773;52.570;13.052;2023-04-24T12:43:37;99968.00;;;22.80
23208;BMP180;11773;52.570;13.052;2023-04-24T12:46:07;99984.00;;;22.80
23208;BMP180;11773;52.570;13.052;2023-04-24T12:48:36;99978.00;;;22.70
23208;BMP180;11773;52.570;13.052;2023-04-24T12:51:07;99993.00;;;22.70
23208;BMP180;11773;52.570;13.052;2023-04-24T12:53:36;99983.00;;;22.70
23208;BMP180;11773;52.570;13.052;2023-04-24T12:56:06;99984.00;;;22.70
23208;BMP180;11773;52.570;13.052;2023-04-24T12:58:35;99995.00;;;22.70
23208;BMP180;11773;52.570;13.052;2023-04-24T13:01:05;99990.00;;;22.70
23208;BMP180;11773;52.570;13.052;2023-04-24T13:03:35;99980.00;;;22.70
23208;BMP180;11773;52.570;13.052;2023-04-24T13:06:04;99979.00;;;22.80
23208;BMP180;11773;52.570;13.052;2023-04-24T13:08:34;99978.00;;;22.80
23208;BMP180;11773;52.570;13.052;2023-04-24T13:11:03;99991.00;;;22.90
23208;BMP180;11773;52.570;13.052;2023-04-24T13:13:33;99970.00;;;22.90
23208;BMP180;11773;52.570;13.052;2023-04-24T13:16:02;99969.00;;;23.00
23208;BMP180;11773;52.570;13.052;2023-04-24T13:18:32;99975.00;;;23.00
23208;BMP180;11773;52.570;13.052;2023-04-24T13:21:01;99973.00;;;23.00
23208;BMP180;11773;52.570;13.052;2023-04-24T13:23:31;99974.00;;;23.10
23208;BMP180;11773;52.570;13.052;2023-04-24T13:26:00;99962.00;;;23.10
23208;BMP180;11773;52.570;13.052;2023-04-24T13:28:30;99961.00;;;23.10
23208;BMP180;11773;52.570;13.052;2023-04-24T13:31:00;99958.00;;;23.20
23208;BMP180;11773;52.570;13.052;2023-04-24T13:33:29;99952.00;;;23.20
23208;BMP180;11773;52.570;13.052;2023-04-24T13:35:59;99953.00;;;23.30
23208;BMP180;11773;52.570;13.052;2023-04-24T13:38:28;99946.00;;;23.30
23208;BMP180;11773;52.570;13.052;2023-04-24T13:40:58;99946.00;;;23.30
23208;BMP180;11773;52.570;13.052;2023-04-24T13:43:28;99958.00;;;23.30
23208;BMP180;11773;52.570;13.052;2023-04-24T13:45:58;99962.00;;;23.40
23208;BMP180;11773;52.570;13.052;2023-04-24T13:48:30;99962.00;;;23.40
23208;BMP180;11773;52.570;13.052;2023-04-24T13:50:59;99958.00;;;23.40
23208;BMP180;11773;52.570;13.052;2023-04-24T13:53:29;99949.00;;;23.40
23208;BMP180;11773;52.570;13.052;2023-04-24T13:55:58;99943.00;;;23.50
23208;BMP180;11773;52.570;13.052;2023-04-24T13:58:28;99942.00;;;23.50
23208;BMP180;11773;52.570;13.052;2023-04-24T14:00:57;99948.00;;;23.50
23208;BMP180;11773;52.570;13.052;2023-04-24T14:03:27;99951.00;;;23.60
23208;BMP180;11773;52.570;13.052;2023-04-24T14:05:57;99958.00;;;23.60
23208;BMP180;11773;52.570;13.052;2023-04-24T14:08:26;99949.00;;;23.60
23208;BMP180;11773;52.570;13.052;2023-04-24T14:10:56;99952.00;;;23.70
23208;BMP180;11773;52.570;13.052;2023-04-24T14:13:25;99931.00;;;23.70
23208;BMP180;11773;52.570;13.052;2023-04-24T14:15:55;99946.00;;;23.70
23208;BMP180;11773;52.570;13.052;2023-04-24T14:18:25;99939.00;;;23.70